Time;durP1;ratioP1;P1;durP2;ratioP2;P2;SDS_P1;SDS_P2;PMS_P1;PMS_P2;Temp;Humidity;BMP_temperature;BMP_pressure;BME280_temperature;BME280_humidity;BME280_pressure;Samples;Min_cycle;Max_cycle;Signal;HPM_P1;HPM_P2
2024/03/27 00:01:24;;;;;;;;;;;20.30;47.30;;;;;;1528267;76;899;-68
2024/03/27 00:03:26;;;;;;;;;;;20.30;47.30;;;;;;1531511;75;1662;-69
2024/03/27 00:05:28;;;;;;;;;;;20.30;47.30;;;;;;1528814;75;1920;-67
2024/03/27 00:07:30;;;;;;;;;;;20.30;47.30;;;;;;1522518;76;671;-69
2024/03/27 00:09:32;;;;;;;;;;;20.30;47.30;;;;;;1532132;76;690;-68
2024/03/27 00:11:34;;;;;;;;;;;20.30;47.30;;;;;;1531465;76;733;-70
2024/03/27 00:13:36;;;;;;;;;;;20.30;47.40;;;;;;1538444;76;744;-67
2024/03/27 00:15:38;;;;;;;;;;;20.30;47.60;;;;;;1534185;75;1193;-66
2024/03/27 00:17:40;;;;;;;;;;;20.20;47.30;;;;;;1540405;75;1587;-66
2024/03/27 00:19:42;;;;;;;;;;;20.30;47.50;;;;;;1531500;76;883;-65
2024/03/27 00:21:43;;;;;;;;;;;20.30;47.50;;;;;;1528867;76;765;-67
2024/03/27 00:23:45;;;;;;;;;;;20.30;47.50;;;;;;1522679;76;671;-66
2024/03/27 00:25:49;;;;;;;;;;;20.30;47.50;;;;;;1537488;75;1914;-68
2024/03/27 00:27:51;;;;;;;;;;;20.30;47.50;;;;;;1535150;75;1841;-66
2024/03/27 00:29:52;;;;;;;;;;;20.30;47.50;;;;;;1534153;75;729;-66
2024/03/27 00:31:55;;;;;;;;;;;20.30;47.50;;;;;;1532523;75;1544;-68
2024/03/27 00:33:57;;;;;;;;;;;20.30;47.50;;;;;;1531489;76;759;-64
2024/03/27 00:35:59;;;;;;;;;;;20.30;47.50;;;;;;1523869;76;1128;-66
2024/03/27 00:38:01;;;;;;;;;;;20.30;47.50;;;;;;1532344;76;764;-66
2024/03/27 00:40:03;;;;;;;;;;;20.30;47.50;;;;;;1530632;76;687;-66
2024/03/27 00:42:05;;;;;;;;;;;20.30;47.50;;;;;;1534474;75;737;-66
2024/03/27 00:44:07;;;;;;;;;;;20.30;47.50;;;;;;1527669;75;751;-66
2024/03/27 00:46:09;;;;;;;;;;;20.30;47.60;;;;;;1533563;76;1935;-67
2024/03/27 00:48:11;;;;;;;;;;;20.30;47.50;;;;;;1534427;75;743;-69
2024/03/27 00:50:13;;;;;;;;;;;20.30;47.60;;;;;;1529546;75;745;-67
2024/03/27 00:52:14;;;;;;;;;;;20.30;47.60;;;;;;1525358;76;674;-66
2024/03/27 00:54:16;;;;;;;;;;;20.30;47.60;;;;;;1539297;75;707;-66
2024/03/27 00:56:21;;;;;;;;;;;20.30;47.60;;;;;;1522509;75;1173;-66
2024/03/27 00:58:22;;;;;;;;;;;20.30;47.60;;;;;;1519207;75;1687;-66
2024/03/27 01:00:24;;;;;;;;;;;20.30;47.70;;;;;;1526541;76;1553;-69
2024/03/27 01:02:26;;;;;;;;;;;20.90;48.00;;;;;;1536191;75;769;-69
2024/03/27 01:04:28;;;;;;;;;;;20.30;47.70;;;;;;1524941;75;745;-67
2024/03/27 01:06:29;;;;;;;;;;;20.30;47.70;;;;;;1540362;75;1947;-67
2024/03/27 01:08:31;;;;;;;;;;;20.30;47.70;;;;;;1530768;76;618;-67
2024/03/27 01:10:34;;;;;;;;;;;20.30;47.70;;;;;;1528014;76;764;-66
2024/03/27 01:12:37;;;;;;;;;;;20.30;47.80;;;;;;1530221;76;652;-67
2024/03/27 01:14:40;;;;;;;;;;;20.30;47.70;;;;;;1530806;76;1594;-68
2024/03/27 01:16:42;;;;;;;;;;;20.30;47.80;;;;;;1530966;75;1152;-65
2024/03/27 01:18:44;;;;;;;;;;;20.30;47.70;;;;;;1540922;75;716;-65
2024/03/27 01:20:45;;;;;;;;;;;20.20;47.60;;;;;;1526477;76;832;-67
2024/03/27 01:22:48;;;;;;;;;;;20.30;47.80;;;;;;1528290;76;773;-68
2024/03/27 01:24:50;;;;;;;;;;;20.30;47.80;;;;;;1544433;75;1922;-68
2024/03/27 01:26:52;;;;;;;;;;;20.20;47.70;;;;;;1534867;75;744;-66
2024/03/27 01:28:54;;;;;;;;;;;20.20;47.70;;;;;;1533617;75;1197;-67
2024/03/27 01:30:56;;;;;;;;;;;20.30;47.80;;;;;;1531307;76;768;-67
2024/03/27 01:32:58;;;;;;;;;;;20.30;47.80;;;;;;1539952;75;671;-69
2024/03/27 01:35:00;;;;;;;;;;;20.20;47.80;;;;;;1536436;75;1127;-67
2024/03/27 01:37:01;;;;;;;;;;;20.30;47.90;;;;;;1534767;76;773;-67
2024/03/27 01:39:03;;;;;;;;;;;20.30;47.90;;;;;;1540285;76;756;-65
2024/03/27 01:41:06;;;;;;;;;;;20.30;47.90;;;;;;1506588;77;1258;-67
2024/03/27 01:43:08;;;;;;;;;;;20.30;48.00;;;;;;1536140;76;1572;-66
2024/03/27 01:45:11;;;;;;;;;;;20.20;47.80;;;;;;1533431;75;1928;-66
2024/03/27 01:47:13;;;;;;;;;;;20.30;48.00;;;;;;1520298;76;1084;-67
2024/03/27 01:49:15;;;;;;;;;;;20.30;48.00;;;;;;1535840;75;756;-70
2024/03/27 01:51:17;;;;;;;;;;;20.30;48.00;;;;;;1535349;76;821;-67
2024/03/27 01:53:19;;;;;;;;;;;20.30;48.10;;;;;;1538248;75;749;-67
2024/03/27 01:55:21;;;;;;;;;;;20.30;48.10;;;;;;1527642;75;1137;-66
2024/03/27 01:57:22;;;;;;;;;;;20.30;48.10;;;;;;1533106;75;1601;-67
2024/03/27 01:59:24;;;;;;;;;;;20.30;48.10;;;;;;1534840;75;730;-67
2024/03/27 02:01:27;;;;;;;;;;;20.20;48.00;;;;;;1535268;76;757;-67
2024/03/27 02:03:29;;;;;;;;;;;20.40;48.10;;;;;;1524408;75;845;-67
2024/03/27 02:05:31;;;;;;;;;;;20.30;48.10;;;;;;1530694;75;1915;-68
2024/03/27 02:07:32;;;;;;;;;;;20.20;48.00;;;;;;1546842;76;730;-68
2024/03/27 02:09:34;;;;;;;;;;;20.30;48.10;;;;;;1543486;76;780;-67
2024/03/27 02:11:36;;;;;;;;;;;20.30;48.10;;;;;;1528987;76;1570;-67
2024/03/27 02:13:38;;;;;;;;;;;20.30;48.10;;;;;;1531190;76;910;-67
2024/03/27 02:15:40;;;;;;;;;;;20.30;48.10;;;;;;1516565;76;1187;-66
2024/03/27 02:17:42;;;;;;;;;;;20.30;48.10;;;;;;1542969;75;676;-66
2024/03/27 02:19:44;;;;;;;;;;;20.30;48.20;;;;;;1533289;76;637;-67
2024/03/27 02:21:45;;;;;;;;;;;20.40;48.20;;;;;;1532731;76;746;-70
2024/03/27 02:24:07;;;;;;;;;;;20.30;48.20;;;;;;1533133;76;682;-67
2024/03/27 02:26:11;;;;;;;;;;;20.30;48.10;;;;;;1511418;77;1937;-64
2024/03/27 02:28:13;;;;;;;;;;;20.30;48.20;;;;;;1507410;77;735;-65
2024/03/27 02:30:15;;;;;;;;;;;20.30;48.20;;;;;;1510751;77;851;-69
2024/03/27 02:32:17;;;;;;;;;;;20.30;48.30;;;;;;1530159;76;979;-67
2024/03/27 02:34:19;;;;;;;;;;;20.30;48.20;;;;;;1526947;76;743;-68
2024/03/27 02:36:21;;;;;;;;;;;20.30;48.30;;;;;;1526984;75;1126;-67
2024/03/27 02:38:27;;;;;;;;;;;20.20;48.10;;;;;;1531053;75;1614;-67
2024/03/27 02:40:26;;;;;;;;;;;20.30;48.30;;;;;;1530265;76;1430;-67
2024/03/27 02:42:28;;;;;;;;;;;20.40;48.30;;;;;;1534027;76;819;-66
2024/03/27 02:44:30;;;;;;;;;;;20.30;48.30;;;;;;1529537;76;784;-67
2024/03/27 02:46:32;;;;;;;;;;;20.30;48.30;;;;;;1540938;75;1937;-66
2024/03/27 02:48:34;;;;;;;;;;;20.30;48.30;;;;;;1543710;75;724;-66
2024/03/27 02:50:36;;;;;;;;;;;20.30;48.40;;;;;;1539010;75;803;-66
2024/03/27 02:52:38;;;;;;;;;;;20.20;48.20;;;;;;1539539;75;1548;-67
2024/03/27 02:54:39;;;;;;;;;;;20.30;48.40;;;;;;1534450;75;745;-67
2024/03/27 02:56:41;;;;;;;;;;;20.30;48.40;;;;;;1531882;75;1118;-67
2024/03/27 02:58:43;;;;;;;;;;;20.30;48.40;;;;;;1530246;75;809;-66
2024/03/27 03:00:45;;;;;;;;;;;20.20;48.30;;;;;;1531999;75;712;-67
2024/03/27 03:02:47;;;;;;;;;;;20.30;48.40;;;;;;1533657;76;830;-67
2024/03/27 03:04:49;;;;;;;;;;;20.30;48.40;;;;;;1534438;76;1173;-67
2024/03/27 03:06:51;;;;;;;;;;;20.30;48.40;;;;;;1528801;75;1917;-66
2024/03/27 03:08:53;;;;;;;;;;;20.30;48.40;;;;;;1537999;76;805;-67
2024/03/27 03:10:55;;;;;;;;;;;20.30;48.40;;;;;;1529468;76;851;-69
2024/03/27 03:12:57;;;;;;;;;;;20.20;48.30;;;;;;1535009;75;707;-68
2024/03/27 03:14:59;;;;;;;;;;;20.30;48.40;;;;;;1538196;75;1107;-66
2024/03/27 03:17:02;;;;;;;;;;;20.30;48.40;;;;;;1534953;76;748;-65
2024/03/27 03:19:03;;;;;;;;;;;20.30;48.40;;;;;;1533114;75;681;-65
2024/03/27 03:21:05;;;;;;;;;;;20.30;48.40;;;;;;1505931;77;1627;-68
2024/03/27 03:23:07;;;;;;;;;;;20.20;48.30;;;;;;1538262;76;735;-66
2024/03/27 03:25:10;;;;;;;;;;;20.20;48.40;;;;;;1536405;76;1183;-66
2024/03/27 03:27:12;;;;;;;;;;;20.30;48.40;;;;;;1531534;76;1907;-68
2024/03/27 03:29:14;;;;;;;;;;;20.30;48.40;;;;;;1527367;76;748;-67
2024/03/27 03:31:17;;;;;;;;;;;20.30;48.50;;;;;;1541097;76;752;-66
2024/03/27 03:33:19;;;;;;;;;;;20.20;48.40;;;;;;1525435;76;816;-67
2024/03/27 03:35:20;;;;;;;;;;;20.30;48.50;;;;;;1534134;75;1335;-67
2024/03/27 03:37:22;;;;;;;;;;;20.20;48.40;;;;;;1527075;76;917;-67
2024/03/27 03:39:24;;;;;;;;;;;20.20;48.40;;;;;;1529985;75;735;-68
2024/03/27 03:41:26;;;;;;;;;;;20.30;48.50;;;;;;1531616;76;720;-67
2024/03/27 03:43:28;;;;;;;;;;;20.20;48.40;;;;;;1534295;75;815;-67
2024/03/27 03:45:30;;;;;;;;;;;20.20;48.40;;;;;;1535297;75;1175;-66
2024/03/27 03:47:32;;;;;;;;;;;20.20;48.40;;;;;;1525831;75;1906;-66
2024/03/27 03:49:34;;;;;;;;;;;20.30;48.60;;;;;;1538141;76;1553;-65
2024/03/27 03:51:36;;;;;;;;;;;20.30;48.60;;;;;;1536501;75;673;-64
2024/03/27 03:53:38;;;;;;;;;;;20.20;48.50;;;;;;1542105;75;583;-66
2024/03/27 03:55:43;;;;;;;;;;;20.20;48.50;;;;;;1534747;75;1152;-67
2024/03/27 03:57:44;;;;;;;;;;;20.30;48.60;;;;;;1534847;75;738;-66
2024/03/27 03:59:46;;;;;;;;;;;20.30;48.60;;;;;;1545147;75;745;-68
2024/03/27 04:01:48;;;;;;;;;;;20.30;48.60;;;;;;1530746;75;743;-69
2024/03/27 04:03:50;;;;;;;;;;;20.20;48.60;;;;;;1535076;76;1583;-67
2024/03/27 04:05:52;;;;;;;;;;;20.30;48.70;;;;;;1528653;76;1937;-67
2024/03/27 04:07:54;;;;;;;;;;;20.30;48.70;;;;;;1535527;75;929;-66
2024/03/27 04:09:56;;;;;;;;;;;20.30;48.70;;;;;;1532925;76;720;-68
2024/03/27 04:11:57;;;;;;;;;;;20.30;48.70;;;;;;1534103;76;774;-67
2024/03/27 04:13:59;;;;;;;;;;;20.30;48.70;;;;;;1532388;76;674;-66
2024/03/27 04:16:02;;;;;;;;;;;20.20;48.60;;;;;;1533834;75;1153;-70
2024/03/27 04:18:04;;;;;;;;;;;20.30;48.70;;;;;;1532852;76;1560;-69
2024/03/27 04:20:10;;;;;;;;;;;20.30;48.70;;;;;;1540137;75;846;-68
2024/03/27 04:22:09;;;;;;;;;;;20.30;48.80;;;;;;1534663;75;1495;-67
2024/03/27 04:24:11;;;;;;;;;;;20.30;48.80;;;;;;1537181;76;769;-66
2024/03/27 04:26:13;;;;;;;;;;;20.30;48.80;;;;;;1528664;75;1941;-67
2024/03/27 04:28:15;;;;;;;;;;;20.20;48.60;;;;;;1529961;76;640;-67
2024/03/27 04:30:17;;;;;;;;;;;20.20;48.60;;;;;;1533036;76;734;-66
2024/03/27 04:32:19;;;;;;;;;;;20.20;48.60;;;;;;1544734;75;1678;-66
2024/03/27 04:34:21;;;;;;;;;;;20.20;48.60;;;;;;1540785;75;680;-67
2024/03/27 04:36:23;;;;;;;;;;;20.20;48.70;;;;;;1531789;76;1144;-67
2024/03/27 04:38:25;;;;;;;;;;;20.30;48.80;;;;;;1532140;76;694;-66
2024/03/27 04:40:27;;;;;;;;;;;20.30;48.80;;;;;;1524849;76;740;-68
2024/03/27 04:42:29;;;;;;;;;;;20.30;48.90;;;;;;1533371;75;671;-65
2024/03/27 04:44:31;;;;;;;;;;;20.20;48.70;;;;;;1534325;75;719;-67
2024/03/27 04:46:33;;;;;;;;;;;20.30;48.90;;;;;;1536539;75;1929;-67
2024/03/27 04:48:34;;;;;;;;;;;20.30;48.90;;;;;;1532427;76;733;-67
2024/03/27 04:50:36;;;;;;;;;;;20.30;48.90;;;;;;1536950;75;736;-67
2024/03/27 04:52:38;;;;;;;;;;;20.30;48.90;;;;;;1528124;75;589;-67
2024/03/27 04:54:40;;;;;;;;;;;20.20;48.70;;;;;;1528657;75;750;-67
2024/03/27 04:56:42;;;;;;;;;;;20.30;48.90;;;;;;1531055;76;1068;-68
2024/03/27 04:58:44;;;;;;;;;;;21.00;49.30;;;;;;1532366;75;783;-66
2024/03/27 05:00:46;;;;;;;;;;;20.20;48.70;;;;;;1530053;75;1604;-66
2024/03/27 05:02:48;;;;;;;;;;;20.30;49.00;;;;;;1534418;75;750;-67
2024/03/27 05:04:49;;;;;;;;;;;20.20;48.90;;;;;;1537467;75;1131;-65
2024/03/27 05:06:51;;;;;;;;;;;20.20;48.90;;;;;;1532732;75;1930;-67
2024/03/27 05:08:53;;;;;;;;;;;20.30;49.00;;;;;;1532017;76;664;-68
2024/03/27 05:10:55;;;;;;;;;;;20.20;48.90;;;;;;1529427;76;747;-68
2024/03/27 05:12:57;;;;;;;;;;;20.20;49.10;;;;;;1534323;76;1417;-63
2024/03/27 05:14:59;;;;;;;;;;;20.20;48.20;;;;;;1534184;75;1147;-64
2024/03/27 05:17:01;;;;;;;;;;;20.20;47.00;;;;;;1530566;76;661;-65
2024/03/27 05:19:03;;;;;;;;;;;20.20;46.00;;;;;;1532297;76;778;-66
2024/03/27 05:21:08;;;;;;;;;;;20.30;46.40;;;;;;1531067;75;741;-65
2024/03/27 05:23:09;;;;;;;;;;;20.10;46.00;;;;;;1542133;75;1486;-64
2024/03/27 05:25:11;;;;;;;;;;;20.10;46.10;;;;;;1540283;75;1183;-65
2024/03/27 05:27:13;;;;;;;;;;;20.10;45.90;;;;;;1536100;75;1916;-65
2024/03/27 05:29:15;;;;;;;;;;;20.00;45.70;;;;;;1543142;75;718;-66
2024/03/27 05:31:17;;;;;;;;;;;20.00;45.60;;;;;;1525090;75;689;-67
2024/03/27 05:33:19;;;;;;;;;;;20.00;45.50;;;;;;1524246;75;690;-68
2024/03/27 05:35:20;;;;;;;;;;;19.90;45.50;;;;;;1525980;75;1159;-66
2024/03/27 05:37:22;;;;;;;;;;;20.00;45.30;;;;;;1524007;76;726;-65
2024/03/27 05:39:24;;;;;;;;;;;19.90;45.20;;;;;;1527335;75;865;-64
2024/03/27 05:41:26;;;;;;;;;;;19.90;45.00;;;;;;1526826;75;1604;-67
2024/03/27 05:43:28;;;;;;;;;;;19.80;44.70;;;;;;1529662;75;695;-68
2024/03/27 05:45:30;;;;;;;;;;;19.80;44.50;;;;;;1529818;76;1151;-66
2024/03/27 05:47:32;;;;;;;;;;;19.80;44.70;;;;;;1523954;75;1909;-71
2024/03/27 05:49:34;;;;;;;;;;;19.80;44.60;;;;;;1525520;76;812;-69
2024/03/27 05:51:36;;;;;;;;;;;19.80;44.40;;;;;;1530171;75;684;-69
2024/03/27 05:53:38;;;;;;;;;;;19.80;44.30;;;;;;1522112;76;762;-70
2024/03/27 05:55:40;;;;;;;;;;;19.70;44.30;;;;;;1519157;76;1650;-66
2024/03/27 05:57:42;;;;;;;;;;;19.80;44.10;;;;;;1528313;75;748;-64
2024/03/27 05:59:44;;;;;;;;;;;19.70;44.20;;;;;;1530578;75;689;-67
2024/03/27 06:01:46;;;;;;;;;;;19.70;44.10;;;;;;1523174;76;774;-68
2024/03/27 06:03:51;;;;;;;;;;;19.70;44.00;;;;;;1534099;75;706;-68
2024/03/27 06:05:53;;;;;;;;;;;19.70;44.10;;;;;;1536316;75;1150;-65
2024/03/27 06:07:55;;;;;;;;;;;20.20;44.10;;;;;;1536999;76;1936;-65
2024/03/27 06:09:57;;;;;;;;;;;19.60;43.70;;;;;;1526778;75;1432;-66
2024/03/27 06:11:59;;;;;;;;;;;19.70;44.10;;;;;;1537275;75;718;-68
2024/03/27 06:14:01;;;;;;;;;;;19.60;44.20;;;;;;1531253;76;747;-66
2024/03/27 06:16:02;;;;;;;;;;;19.70;44.90;;;;;;1530914;75;1150;-68
2024/03/27 06:18:04;;;;;;;;;;;19.60;44.70;;;;;;1534280;75;674;-68
2024/03/27 06:20:08;;;;;;;;;;;19.70;45.00;;;;;;1531185;75;786;-67
2024/03/27 06:22:09;;;;;;;;;;;19.70;45.00;;;;;;1533823;76;726;-66
2024/03/27 06:24:11;;;;;;;;;;;19.70;45.10;;;;;;1539472;76;1471;-65
2024/03/27 06:26:13;;;;;;;;;;;19.80;45.20;;;;;;1535805;74;1182;-68
2024/03/27 06:28:15;;;;;;;;;;;19.70;45.30;;;;;;1532775;75;1900;-67
2024/03/27 06:30:17;;;;;;;;;;;19.80;45.40;;;;;;1536772;76;596;-66
2024/03/27 06:32:19;;;;;;;;;;;19.80;45.50;;;;;;1532354;75;778;-68
2024/03/27 06:34:21;;;;;;;;;;;19.90;45.60;;;;;;1529882;76;678;-65
2024/03/27 06:36:23;;;;;;;;;;;19.80;45.60;;;;;;1536269;76;1161;-66
2024/03/27 06:38:25;;;;;;;;;;;19.80;45.70;;;;;;1535939;76;1347;-66
2024/03/27 06:40:27;;;;;;;;;;;19.90;45.80;;;;;;1537968;75;723;-65
2024/03/27 06:42:29;;;;;;;;;;;19.90;46.00;;;;;;1537017;75;813;-68
2024/03/27 06:44:31;;;;;;;;;;;19.90;46.00;;;;;;1531285;76;777;-66
2024/03/27 06:46:38;;;;;;;;;;;19.90;46.10;;;;;;1530949;75;1178;-65
2024/03/27 06:50:53;;;;;;;;;;;19.90;46.20;;;;;;1515009;76;1130;-65
2024/03/27 06:52:55;;;;;;;;;;;19.90;46.30;;;;;;1536842;75;1446;-66
2024/03/27 06:54:57;;;;;;;;;;;19.90;46.30;;;;;;1527052;76;1220;-68
2024/03/27 06:56:59;;;;;;;;;;;20.00;46.40;;;;;;1530793;76;751;-69
2024/03/27 06:59:02;;;;;;;;;;;20.00;46.50;;;;;;1526553;75;722;-67
2024/03/27 07:01:04;;;;;;;;;;;19.90;46.50;;;;;;1542422;75;746;-66
2024/03/27 07:03:06;;;;;;;;;;;19.90;46.50;;;;;;1537788;75;739;-66
2024/03/27 07:05:08;;;;;;;;;;;19.90;46.60;;;;;;1536211;74;1130;-66
2024/03/27 07:07:10;;;;;;;;;;;20.00;46.60;;;;;;1528645;76;1932;-66
2024/03/27 07:09:12;;;;;;;;;;;19.90;46.60;;;;;;1538325;75;859;-67
2024/03/27 07:11:14;;;;;;;;;;;20.00;46.70;;;;;;1530001;76;815;-68
2024/03/27 07:13:16;;;;;;;;;;;20.00;46.80;;;;;;1528987;75;747;-67
2024/03/27 07:15:17;;;;;;;;;;;20.00;46.80;;;;;;1537904;75;1142;-65
2024/03/27 07:17:19;;;;;;;;;;;20.00;46.80;;;;;;1530587;75;778;-66
2024/03/27 07:19:21;;;;;;;;;;;20.00;46.90;;;;;;1529358;76;784;-66
2024/03/27 07:21:23;;;;;;;;;;;20.00;46.90;;;;;;1536538;75;1757;-68
2024/03/27 07:23:30;;;;;;;;;;;20.00;46.90;;;;;;1534191;76;721;-66
2024/03/27 07:25:29;;;;;;;;;;;20.00;46.90;;;;;;1535826;75;1271;-68
2024/03/27 07:27:33;;;;;;;;;;;20.00;47.00;;;;;;1523550;76;1933;-65
2024/03/27 07:29:39;;;;;;;;;;;20.00;46.90;;;;;;1532571;75;1611;-68
2024/03/27 07:31:38;;;;;;;;;;;20.00;47.00;;;;;;1522708;75;1194;-65
2024/03/27 07:33:40;;;;;;;;;;;20.00;47.00;;;;;;1531129;76;1589;-66
2024/03/27 07:35:41;;;;;;;;;;;20.10;47.10;;;;;;1535934;76;1107;-68
2024/03/27 07:37:43;;;;;;;;;;;20.00;47.10;;;;;;1535813;75;684;-65
2024/03/27 07:39:45;;;;;;;;;;;20.00;47.10;;;;;;1534962;75;754;-67
2024/03/27 07:41:47;;;;;;;;;;;20.00;47.10;;;;;;1536075;76;593;-66
2024/03/27 07:43:49;;;;;;;;;;;20.10;47.20;;;;;;1525409;75;834;-66
2024/03/27 07:45:51;;;;;;;;;;;20.10;47.30;;;;;;1530858;76;1135;-65
2024/03/27 07:47:53;;;;;;;;;;;20.00;47.10;;;;;;1528749;76;1924;-68
2024/03/27 07:49:55;;;;;;;;;;;20.00;47.20;;;;;;1536522;75;871;-66
2024/03/27 07:51:57;;;;;;;;;;;20.10;47.30;;;;;;1529097;76;916;-67
2024/03/27 07:53:59;;;;;;;;;;;20.10;47.30;;;;;;1540205;76;766;-69
2024/03/27 07:56:03;;;;;;;;;;;20.10;47.30;;;;;;1537098;75;1158;-66
2024/03/27 07:58:04;;;;;;;;;;;20.10;47.40;;;;;;1536511;75;1621;-65
2024/03/27 08:00:11;;;;;;;;;;;20.10;47.40;;;;;;1537459;75;789;-66
2024/03/27 08:02:10;;;;;;;;;;;20.00;47.20;;;;;;1524705;75;1533;-65
2024/03/27 08:04:12;;;;;;;;;;;20.00;47.30;;;;;;1529454;75;635;-66
2024/03/27 08:06:14;;;;;;;;;;;20.00;47.30;;;;;;1528831;76;1124;-69
2024/03/27 08:08:15;;;;;;;;;;;20.10;47.40;;;;;;1533279;76;1939;-67
2024/03/27 08:10:17;;;;;;;;;;;20.10;47.40;;;;;;1534452;75;755;-66
2024/03/27 08:12:19;;;;;;;;;;;20.10;47.40;;;;;;1522421;76;682;-65
2024/03/27 08:14:22;;;;;;;;;;;20.10;47.40;;;;;;1532207;76;757;-65
2024/03/27 08:16:23;;;;;;;;;;;20.00;47.30;;;;;;1527033;75;1623;-64
2024/03/27 08:18:25;;;;;;;;;;;20.00;47.40;;;;;;1529419;75;725;-66
2024/03/27 08:20:27;;;;;;;;;;;20.10;47.40;;;;;;1529289;75;729;-65
2024/03/27 08:22:29;;;;;;;;;;;20.10;47.50;;;;;;1531473;76;776;-67
2024/03/27 08:24:31;;;;;;;;;;;20.10;47.50;;;;;;1538117;75;709;-69
2024/03/27 08:26:33;;;;;;;;;;;20.10;47.50;;;;;;1538287;75;1187;-65
2024/03/27 08:28:35;;;;;;;;;;;20.10;47.50;;;;;;1520350;76;1937;-67
2024/03/27 08:30:37;;;;;;;;;;;20.10;47.50;;;;;;1532601;76;1496;-66
2024/03/27 08:32:39;;;;;;;;;;;20.10;47.50;;;;;;1529438;75;811;-65
2024/03/27 08:34:40;;;;;;;;;;;20.10;47.50;;;;;;1538706;75;687;-66
2024/03/27 08:36:43;;;;;;;;;;;20.20;47.50;;;;;;1526149;76;1137;-65
2024/03/27 08:38:45;;;;;;;;;;;20.10;47.50;;;;;;1534541;76;722;-68
2024/03/27 08:40:52;;;;;;;;;;;20.10;47.50;;;;;;1525534;75;781;-71
2024/03/27 08:42:54;;;;;;;;;;;20.10;47.60;;;;;;1542259;76;752;-74
2024/03/27 08:44:57;;;;;;;;;;;20.10;47.60;;;;;;1538136;75;1489;-74
2024/03/27 08:46:59;;;;;;;;;;;20.10;47.60;;;;;;1534246;75;750;-73
2024/03/27 08:49:01;;;;;;;;;;;20.10;47.60;;;;;;1534742;76;1950;-72
2024/03/27 08:51:03;;;;;;;;;;;20.00;47.50;;;;;;1544945;76;761;-69
2024/03/27 08:53:04;;;;;;;;;;;20.10;47.50;;;;;;1521302;77;741;-69
2024/03/27 08:55:07;;;;;;;;;;;20.10;47.40;;;;;;1535148;76;1147;-69
2024/03/27 08:57:08;;;;;;;;;;;20.00;47.30;;;;;;1580869;73;712;-66
2024/03/27 08:59:10;;;;;;;;;;;20.00;47.40;;;;;;1578801;73;1532;-68
2024/03/27 09:01:16;;;;;;;;;;;20.10;47.10;;;;;;1584919;73;800;-68
2024/03/27 09:03:18;;;;;;;;;;;20.10;47.20;;;;;;1579724;73;689;-69
2024/03/27 09:05:20;;;;;;;;;;;20.20;47.20;;;;;;1586464;73;1147;-70
2024/03/27 09:07:22;;;;;;;;;;;20.00;47.10;;;;;;1573823;73;770;-67
2024/03/27 09:09:24;;;;;;;;;;;20.10;47.30;;;;;;1577262;73;1910;-69
2024/03/27 09:11:26;;;;;;;;;;;20.10;47.30;;;;;;1587036;73;710;-68
2024/03/27 09:13:28;;;;;;;;;;;20.00;47.10;;;;;;1579551;73;1466;-68
2024/03/27 09:15:30;;;;;;;;;;;20.20;47.20;;;;;;1577778;73;1140;-68
2024/03/27 09:17:32;;;;;;;;;;;20.10;47.20;;;;;;1576536;73;723;-68
2024/03/27 09:19:34;;;;;;;;;;;20.20;47.20;;;;;;1586983;73;651;-68
2024/03/27 09:21:35;;;;;;;;;;;20.10;47.20;;;;;;1570067;73;675;-69
2024/03/27 09:23:37;;;;;;;;;;;20.20;47.10;;;;;;1585900;73;645;-69
2024/03/27 09:25:39;;;;;;;;;;;20.20;47.10;;;;;;1573957;73;1094;-68
2024/03/27 09:27:41;;;;;;;;;;;20.20;47.00;;;;;;1577857;73;1552;-71
2024/03/27 09:29:43;;;;;;;;;;;20.20;47.00;;;;;;1585912;73;1934;-68
2024/03/27 09:31:45;;;;;;;;;;;20.20;47.00;;;;;;1578207;73;701;-68
2024/03/27 09:33:47;;;;;;;;;;;20.20;46.90;;;;;;1576043;73;728;-68
2024/03/27 09:35:49;;;;;;;;;;;20.20;46.90;;;;;;1587079;73;1195;-68
2024/03/27 09:37:51;;;;;;;;;;;20.20;46.90;;;;;;1568622;73;799;-70
2024/03/27 09:39:53;;;;;;;;;;;20.20;46.80;;;;;;1576257;73;797;-69
2024/03/27 09:41:55;;;;;;;;;;;20.20;46.80;;;;;;1587928;73;1576;-68
2024/03/27 09:43:56;;;;;;;;;;;20.20;46.80;;;;;;1578311;73;810;-68
2024/03/27 09:45:58;;;;;;;;;;;20.20;46.80;;;;;;1592175;73;1218;-68
2024/03/27 09:48:01;;;;;;;;;;;20.20;46.70;;;;;;1584089;73;1926;-68
2024/03/27 09:50:02;;;;;;;;;;;20.20;46.70;;;;;;1589980;73;739;-67
2024/03/27 09:52:06;;;;;;;;;;;20.20;46.60;;;;;;1577235;73;772;-67
2024/03/27 09:54:08;;;;;;;;;;;20.20;46.60;;;;;;1574741;73;1569;-68
2024/03/27 09:56:10;;;;;;;;;;;20.20;46.60;;;;;;1585144;73;1131;-68
2024/03/27 09:58:12;;;;;;;;;;;20.20;46.60;;;;;;1579972;73;771;-69
2024/03/27 10:00:15;;;;;;;;;;;20.30;46.70;;;;;;1592328;73;698;-70
2024/03/27 10:02:17;;;;;;;;;;;20.30;46.60;;;;;;1582304;73;744;-67
2024/03/27 10:04:19;;;;;;;;;;;20.30;46.60;;;;;;1590248;73;731;-67
2024/03/27 10:06:21;;;;;;;;;;;20.20;46.50;;;;;;1582364;73;1155;-68
2024/03/27 10:08:24;;;;;;;;;;;20.20;46.50;;;;;;1573933;73;1908;-69
2024/03/27 10:10:26;;;;;;;;;;;20.30;46.50;;;;;;1568517;73;682;-66
2024/03/27 10:12:28;;;;;;;;;;;20.30;46.50;;;;;;1570903;73;742;-68
2024/03/27 10:14:30;;;;;;;;;;;20.20;46.40;;;;;;1577799;73;768;-68
2024/03/27 10:16:33;;;;;;;;;;;20.20;46.40;;;;;;1576383;73;1139;-69
2024/03/27 10:18:35;;;;;;;;;;;20.20;46.40;;;;;;1580821;73;618;-68
2024/03/27 10:20:36;;;;;;;;;;;20.30;46.50;;;;;;1565742;73;701;-68
2024/03/27 10:22:39;;;;;;;;;;;20.30;46.40;;;;;;1581968;73;1583;-69
2024/03/27 10:24:40;;;;;;;;;;;20.20;46.30;;;;;;1595013;73;625;-69
2024/03/27 10:26:47;;;;;;;;;;;20.30;46.40;;;;;;1586040;73;1119;-69
2024/03/27 10:28:46;;;;;;;;;;;20.30;46.40;;;;;;1590464;73;1924;-70
2024/03/27 10:30:48;;;;;;;;;;;20.30;46.40;;;;;;1582224;73;781;-72
2024/03/27 10:32:50;;;;;;;;;;;20.30;46.30;;;;;;1552056;75;826;-69
2024/03/27 10:34:52;;;;;;;;;;;20.30;46.30;;;;;;1596632;72;1172;-69
2024/03/27 10:36:54;;;;;;;;;;;20.20;46.20;;;;;;1580037;73;807;-69
2024/03/27 10:38:56;;;;;;;;;;;20.30;46.00;;;;;;1576728;73;680;-71
2024/03/27 10:41:03;;;;;;;;;;;20.20;45.90;;;;;;1571152;73;824;-69
2024/03/27 10:43:06;;;;;;;;;;;20.20;46.00;;;;;;1573657;73;1177;-68
2024/03/27 10:45:08;;;;;;;;;;;20.30;46.00;;;;;;1586336;73;1137;-70
2024/03/27 10:47:11;;;;;;;;;;;20.30;46.10;;;;;;1536905;76;803;-73
2024/03/27 10:49:13;;;;;;;;;;;20.20;46.00;;;;;;1579954;73;1907;-71
2024/03/27 10:51:15;;;;;;;;;;;20.20;46.00;;;;;;1586464;73;786;-74
2024/03/27 10:53:17;;;;;;;;;;;20.20;46.00;;;;;;1579024;73;713;-69
2024/03/27 10:55:19;;;;;;;;;;;20.20;46.00;;;;;;1579085;73;1146;-68
2024/03/27 10:57:22;;;;;;;;;;;20.20;46.00;;;;;;1581658;73;704;-69
2024/03/27 10:59:24;;;;;;;;;;;20.30;46.10;;;;;;1571855;73;739;-68
2024/03/27 11:01:26;;;;;;;;;;;20.20;46.00;;;;;;1586958;73;741;-69
2024/03/27 11:03:28;;;;;;;;;;;20.20;46.00;;;;;;1575135;73;682;-68
2024/03/27 11:05:30;;;;;;;;;;;20.30;46.00;;;;;;1584439;73;1147;-69
2024/03/27 11:07:38;;;;;;;;;;;20.30;46.00;;;;;;1567915;73;751;-71
2024/03/27 11:09:42;;;;;;;;;;;20.20;45.90;;;;;;1583391;73;1900;-70
2024/03/27 11:11:43;;;;;;;;;;;20.30;46.00;;;;;;1581497;73;1912;-71
2024/03/27 11:13:45;;;;;;;;;;;20.20;45.80;;;;;;1582160;73;741;-69
2024/03/27 11:15:49;;;;;;;;;;;20.30;46.00;;;;;;1585740;73;1095;-69
2024/03/27 11:17:51;;;;;;;;;;;20.30;45.20;;;;;;1586571;73;1930;-70
2024/03/27 11:19:56;;;;;;;;;;;20.20;45.30;;;;;;1580604;73;1366;-73
2024/03/27 11:22:03;;;;;;;;;;;20.30;45.50;;;;;;1586372;73;891;-68
2024/03/27 11:24:05;;;;;;;;;;;20.20;45.40;;;;;;1582184;73;1754;-70
2024/03/27 11:26:07;;;;;;;;;;;20.20;45.50;;;;;;1582907;73;1132;-70
2024/03/27 11:28:21;;;;;;;;;;;20.30;45.60;;;;;;1585350;73;749;-68
2024/03/27 11:30:23;;;;;;;;;;;20.20;45.50;;;;;;1583660;73;1915;-70
2024/03/27 11:32:27;;;;;;;;;;;20.30;45.60;;;;;;1585243;73;821;-69
2024/03/27 11:34:29;;;;;;;;;;;20.30;45.60;;;;;;1575836;73;1903;-70
2024/03/27 11:36:31;;;;;;;;;;;20.30;45.60;;;;;;1581734;73;1177;-69
2024/03/27 11:38:33;;;;;;;;;;;20.20;45.50;;;;;;1572803;73;613;-71
2024/03/27 11:40:35;;;;;;;;;;;20.20;45.50;;;;;;1582680;73;881;-69
2024/03/27 11:42:36;;;;;;;;;;;20.30;45.60;;;;;;1595746;73;831;-69
2024/03/27 11:44:38;;;;;;;;;;;20.30;45.50;;;;;;1573996;73;745;-66
2024/03/27 11:46:40;;;;;;;;;;;20.30;45.50;;;;;;1583083;73;1128;-69
2024/03/27 11:48:42;;;;;;;;;;;20.30;45.50;;;;;;1579932;73;1934;-70
2024/03/27 11:50:45;;;;;;;;;;;20.30;45.60;;;;;;1585635;73;741;-70
2024/03/27 11:52:46;;;;;;;;;;;20.20;45.40;;;;;;1588862;73;876;-71
2024/03/27 11:54:48;;;;;;;;;;;20.30;45.50;;;;;;1583764;73;781;-68
2024/03/27 11:56:50;;;;;;;;;;;20.20;45.40;;;;;;1573896;73;1112;-70
2024/03/27 11:58:53;;;;;;;;;;;20.30;45.50;;;;;;1576114;73;801;-70
2024/03/27 12:00:54;;;;;;;;;;;20.30;45.50;;;;;;1595371;73;667;-69
2024/03/27 12:02:59;;;;;;;;;;;20.30;45.50;;;;;;1588544;73;823;-70
2024/03/27 12:05:04;;;;;;;;;;;20.30;45.50;;;;;;1595711;73;1139;-72
2024/03/27 12:07:07;;;;;;;;;;;20.30;45.40;;;;;;1577262;73;737;-69
2024/03/27 12:09:13;;;;;;;;;;;20.30;45.50;;;;;;1590511;73;1913;-71
2024/03/27 12:11:16;;;;;;;;;;;20.30;45.40;;;;;;1576576;73;737;-70